PWSweather.com
Personal Weather Stations
Station Observations
IPODRAVI2
Croatia, Trnovec BartoloveckiHR

CroatiaTrnovec BartoloveckiHR

Lat: 46.2947, Lon: 16.3989

Elevation: 535

Station Type: Davis Vantage Pro2 plus

http://www.pljusak.com/trnovec1/wx.html

High Low Average
Temperature 81.4°F27.4°F 58.1°F14.5°F 69.7°F20.9°F
Dew Point 63.0°F17.2°F 55.8°F13.2°F 59.9°F15.5°F
Winds 8.1 mph NE13.0 mph NE Calm Calm 1.7 mph 2.7 mph
Wind Gusts 12.7 mph20.4 mph -- 3.3 mph5.3 mph
Humidity 93% 49% 73%
Pressure 30.27 in1025.10 in 30.18 in1022.00 in -
Precipitation 0.00 in0.00 in - -
Hour Temp Dew Point Humidity Winds Wind Gusts Pressure Precip Precip Rate Daily Precip Total
12:00 AM 63.1°F17.3°C 58.5°F14.7°C 85% Calm Calm -- 30.25 in1024.4 mb - 0.00 in0.0 mm 0.00 in0.0 mm
12:10 AM 63.2°F17.3°C 58.6°F14.8°C 85% Calm Calm -- 30.25 in1024.4 mb - 0.00 in0.0 mm 0.00 in0.0 mm
12:15 AM 63.2°F17.3°C 58.6°F14.8°C 85% Calm Calm -- 30.25 in1024.4 mb - 0.00 in0.0 mm 0.00 in0.0 mm
12:20 AM 63.2°F17.3°C 58.6°F14.8°C 85% Calm Calm -- 30.25 in1024.4 mb - 0.00 in0.0 mm 0.00 in0.0 mm
12:25 AM 63.2°F17.3°C 58.9°F14.9°C 86% Calm Calm -- 30.25 in1024.4 mb - 0.00 in0.0 mm 0.00 in0.0 mm
12:30 AM 63.1°F17.3°C 58.8°F14.9°C 86% Calm Calm -- 30.25 in1024.4 mb - 0.00 in0.0 mm 0.00 in0.0 mm
12:35 AM 63.2°F17.3°C 58.6°F14.8°C 85% Calm Calm 2.3 mph3.7 kmh 30.25 in1024.4 mb - 0.00 in0.0 mm 0.00 in0.0 mm
12:40 AM 63.6°F17.6°C 58.6°F14.8°C 84% Calm Calm -- 30.25 in1024.4 mb - 0.00 in0.0 mm 0.00 in0.0 mm
12:45 AM 64.0°F17.8°C 58.7°F14.8°C 83% 1.2 mph NNW1.9 kmh NNW 3.5 mph5.6 kmh 30.25 in1024.4 mb - 0.00 in0.0 mm 0.00 in0.0 mm
12:50 AM 64.3°F17.9°C 58.7°F14.8°C 82% Calm Calm 2.3 mph3.7 kmh 30.25 in1024.4 mb - 0.00 in0.0 mm 0.00 in0.0 mm
12:55 AM 64.5°F18.1°C 58.5°F14.7°C 81% Calm Calm 1.2 mph1.9 kmh 30.24 in1024.0 mb - 0.00 in0.0 mm 0.00 in0.0 mm
01:00 AM 64.6°F18.1°C 58.6°F14.8°C 81% Calm Calm -- 30.24 in1024.0 mb - 0.00 in0.0 mm 0.00 in0.0 mm
01:10 AM 64.5°F18.1°C 58.6°F14.8°C 81% Calm Calm -- 30.24 in1024.0 mb - 0.00 in0.0 mm 0.00 in0.0 mm
01:15 AM 64.2°F17.9°C 58.6°F14.8°C 82% Calm Calm -- 30.24 in1024.0 mb - 0.00 in0.0 mm 0.00 in0.0 mm
01:20 AM 63.8°F17.7°C 58.9°F14.9°C 84% Calm Calm -- 30.24 in1024.0 mb - 0.00 in0.0 mm 0.00 in0.0 mm
01:25 AM 63.4°F17.4°C 58.4°F14.7°C 84% Calm Calm -- 30.24 in1024.0 mb - 0.00 in0.0 mm 0.00 in0.0 mm
01:30 AM 63.0°F17.2°C 58.4°F14.7°C 85% Calm Calm -- 30.24 in1024.0 mb - 0.00 in0.0 mm 0.00 in0.0 mm
01:35 AM 62.7°F17.1°C 58.4°F14.7°C 86% Calm Calm -- 30.24 in1024.0 mb - 0.00 in0.0 mm 0.00 in0.0 mm
01:40 AM 62.4°F16.9°C 58.5°F14.7°C 87% Calm Calm -- 30.24 in1024.0 mb - 0.00 in0.0 mm 0.00 in0.0 mm
01:45 AM 62.2°F16.8°C 58.6°F14.8°C 88% Calm Calm -- 30.24 in1024.0 mb - 0.00 in0.0 mm 0.00 in0.0 mm
01:50 AM 62.1°F16.7°C 58.5°F14.7°C 88% Calm Calm -- 30.24 in1024.0 mb - 0.00 in0.0 mm 0.00 in0.0 mm
01:55 AM 61.8°F16.6°C 58.2°F14.6°C 88% Calm Calm -- 30.23 in1023.7 mb - 0.00 in0.0 mm 0.00 in0.0 mm
02:00 AM 61.6°F16.4°C 58.0°F14.4°C 88% Calm Calm -- 30.23 in1023.7 mb - 0.00 in0.0 mm 0.00 in0.0 mm
02:10 AM 61.2°F16.2°C 57.9°F14.4°C 89% Calm Calm -- 30.23 in1023.7 mb - 0.00 in0.0 mm 0.00 in0.0 mm
02:15 AM 61.0°F16.1°C 57.7°F14.3°C 89% Calm Calm -- 30.23 in1023.7 mb - 0.00 in0.0 mm 0.00 in0.0 mm
02:20 AM 60.8°F16.0°C 57.6°F14.2°C 89% Calm Calm -- 30.23 in1023.7 mb - 0.00 in0.0 mm 0.00 in0.0 mm
02:25 AM 60.7°F15.9°C 57.7°F14.3°C 90% Calm Calm -- 30.23 in1023.7 mb - 0.00 in0.0 mm 0.00 in0.0 mm
02:30 AM 60.5°F15.8°C 57.6°F14.2°C 90% Calm Calm -- 30.23 in1023.7 mb - 0.00 in0.0 mm 0.00 in0.0 mm
02:35 AM 60.4°F15.8°C 57.5°F14.2°C 90% Calm Calm -- 30.23 in1023.7 mb - 0.00 in0.0 mm 0.00 in0.0 mm
02:40 AM 60.3°F15.7°C 57.4°F14.1°C 90% Calm Calm -- 30.23 in1023.7 mb - 0.00 in0.0 mm 0.00 in0.0 mm
02:45 AM 60.2°F15.7°C 57.5°F14.2°C 91% Calm Calm -- 30.23 in1023.7 mb - 0.00 in0.0 mm 0.00 in0.0 mm
02:50 AM 60.0°F15.6°C 57.4°F14.1°C 91% Calm Calm -- 30.23 in1023.7 mb - 0.00 in0.0 mm 0.00 in0.0 mm
02:55 AM 59.9°F15.5°C 57.3°F14.1°C 91% Calm Calm -- 30.23 in1023.7 mb - 0.00 in0.0 mm 0.00 in0.0 mm
03:00 AM 59.8°F15.4°C 57.2°F14.0°C 91% Calm Calm -- 30.23 in1023.7 mb - 0.00 in0.0 mm 0.00 in0.0 mm
03:10 AM 59.6°F15.3°C 57.0°F13.9°C 91% Calm Calm -- 30.23 in1023.7 mb - 0.00 in0.0 mm 0.00 in0.0 mm
03:15 AM 59.6°F15.3°C 57.0°F13.9°C 91% Calm Calm -- 30.23 in1023.7 mb - 0.00 in0.0 mm 0.00 in0.0 mm
03:20 AM 59.6°F15.3°C 57.0°F13.9°C 91% Calm Calm 1.2 mph1.9 kmh 30.23 in1023.7 mb - 0.00 in0.0 mm 0.00 in0.0 mm
03:25 AM 59.7°F15.4°C 57.0°F13.9°C 91% Calm Calm -- 30.23 in1023.7 mb - 0.00 in0.0 mm 0.00 in0.0 mm
03:30 AM 59.7°F15.4°C 57.1°F13.9°C 91% Calm Calm -- 30.23 in1023.7 mb - 0.00 in0.0 mm 0.00 in0.0 mm
03:35 AM 59.6°F15.3°C 57.0°F13.9°C 91% Calm Calm 1.2 mph1.9 kmh 30.23 in1023.7 mb - 0.00 in0.0 mm 0.00 in0.0 mm
03:40 AM 59.6°F15.3°C 57.0°F13.9°C 91% Calm Calm 1.2 mph1.9 kmh 30.23 in1023.7 mb - 0.00 in0.0 mm 0.00 in0.0 mm
03:45 AM 59.5°F15.3°C 56.9°F13.8°C 91% Calm Calm 2.3 mph3.7 kmh 30.23 in1023.7 mb - 0.00 in0.0 mm 0.00 in0.0 mm
03:50 AM 59.5°F15.3°C 56.9°F13.8°C 91% 1.2 mph NNW1.9 kmh NNW 1.2 mph1.9 kmh 30.23 in1023.7 mb - 0.00 in0.0 mm 0.00 in0.0 mm
03:55 AM 59.4°F15.2°C 56.8°F13.8°C 91% 1.2 mph NNW1.9 kmh NNW 3.5 mph5.6 kmh 30.23 in1023.7 mb - 0.00 in0.0 mm 0.00 in0.0 mm
04:00 AM 59.4°F15.2°C 56.8°F13.8°C 91% 1.2 mph NNW1.9 kmh NNW 2.3 mph3.7 kmh 30.23 in1023.7 mb - 0.00 in0.0 mm 0.00 in0.0 mm
04:10 AM 59.3°F15.2°C 56.7°F13.7°C 91% 1.2 mph NNW1.9 kmh NNW 1.2 mph1.9 kmh 30.23 in1023.7 mb - 0.00 in0.0 mm 0.00 in0.0 mm
04:15 AM 59.3°F15.2°C 56.7°F13.7°C 91% 1.2 mph NNW1.9 kmh NNW 3.5 mph5.6 kmh 30.23 in1023.7 mb - 0.00 in0.0 mm 0.00 in0.0 mm
04:20 AM 59.2°F15.1°C 56.3°F13.5°C 90% Calm Calm -- 30.23 in1023.7 mb - 0.00 in0.0 mm 0.00 in0.0 mm
04:25 AM 59.0°F15.0°C 56.1°F13.4°C 90% Calm Calm 2.3 mph3.7 kmh 30.23 in1023.7 mb - 0.00 in0.0 mm 0.00 in0.0 mm
04:30 AM 58.8°F14.9°C 56.2°F13.4°C 91% 1.2 mph NW1.9 kmh NW 3.5 mph5.6 kmh 30.23 in1023.7 mb - 0.00 in0.0 mm 0.00 in0.0 mm
04:35 AM 58.6°F14.8°C 56.0°F13.3°C 91% 1.2 mph NW1.9 kmh NW 3.5 mph5.6 kmh 30.23 in1023.7 mb - 0.00 in0.0 mm 0.00 in0.0 mm
04:40 AM 58.5°F14.7°C 55.9°F13.3°C 91% 1.2 mph NW1.9 kmh NW 2.3 mph3.7 kmh 30.24 in1024.0 mb - 0.00 in0.0 mm 0.00 in0.0 mm
04:45 AM 58.5°F14.7°C 56.2°F13.4°C 92% Calm Calm 1.2 mph1.9 kmh 30.24 in1024.0 mb - 0.00 in0.0 mm 0.00 in0.0 mm
04:50 AM 58.6°F14.8°C 56.3°F13.5°C 92% Calm Calm -- 30.24 in1024.0 mb - 0.00 in0.0 mm 0.00 in0.0 mm
04:55 AM 58.6°F14.8°C 56.3°F13.5°C 92% Calm Calm -- 30.24 in1024.0 mb - 0.00 in0.0 mm 0.00 in0.0 mm
05:00 AM 58.6°F14.8°C 56.3°F13.5°C 92% Calm Calm -- 30.24 in1024.0 mb - 0.00 in0.0 mm 0.00 in0.0 mm
05:10 AM 58.5°F14.7°C 56.2°F13.4°C 92% Calm Calm -- 30.25 in1024.4 mb - 0.00 in0.0 mm 0.00 in0.0 mm
05:15 AM 58.5°F14.7°C 56.2°F13.4°C 92% Calm Calm -- 30.25 in1024.4 mb - 0.00 in0.0 mm 0.00 in0.0 mm
05:20 AM 58.3°F14.6°C 56.0°F13.3°C 92% Calm Calm -- 30.25 in1024.4 mb - 0.00 in0.0 mm 0.00 in0.0 mm
05:25 AM 58.2°F14.6°C 55.9°F13.3°C 92% Calm Calm -- 30.25 in1024.4 mb - 0.00 in0.0 mm 0.00 in0.0 mm
05:30 AM 58.2°F14.6°C 55.8°F13.2°C 92% Calm Calm -- 30.25 in1024.4 mb - 0.00 in0.0 mm 0.00 in0.0 mm
05:35 AM 58.1°F14.5°C 55.8°F13.2°C 92% Calm Calm -- 30.25 in1024.4 mb - 0.00 in0.0 mm 0.00 in0.0 mm
05:40 AM 58.1°F14.5°C 55.8°F13.2°C 92% Calm Calm -- 30.25 in1024.4 mb - 0.00 in0.0 mm 0.00 in0.0 mm
05:45 AM 58.2°F14.6°C 56.2°F13.4°C 93% Calm Calm -- 30.25 in1024.4 mb - 0.00 in0.0 mm 0.00 in0.0 mm
05:50 AM 58.3°F14.6°C 56.3°F13.5°C 93% Calm Calm -- 30.25 in1024.4 mb - 0.00 in0.0 mm 0.00 in0.0 mm
05:55 AM 58.5°F14.7°C 56.5°F13.6°C 93% Calm Calm -- 30.25 in1024.4 mb - 0.00 in0.0 mm 0.00 in0.0 mm
06:00 AM 58.6°F14.8°C 56.6°F13.7°C 93% Calm Calm -- 30.25 in1024.4 mb - 0.00 in0.0 mm 0.00 in0.0 mm
06:10 AM 59.2°F15.1°C 56.8°F13.8°C 92% Calm Calm -- 30.26 in1024.7 mb - 0.00 in0.0 mm 0.00 in0.0 mm
06:15 AM 59.5°F15.3°C 57.2°F14.0°C 92% Calm Calm -- 30.26 in1024.7 mb - 0.00 in0.0 mm 0.00 in0.0 mm
06:20 AM 59.9°F15.5°C 57.2°F14.0°C 91% Calm Calm -- 30.26 in1024.7 mb - 0.00 in0.0 mm 0.00 in0.0 mm
06:25 AM 60.2°F15.7°C 57.5°F14.2°C 91% Calm Calm 3.5 mph5.6 kmh 30.26 in1024.7 mb - 0.00 in0.0 mm 0.00 in0.0 mm
06:30 AM 60.5°F15.8°C 57.6°F14.2°C 90% 1.2 mph WSW1.9 kmh WSW 3.5 mph5.6 kmh 30.26 in1024.7 mb - 0.00 in0.0 mm 0.00 in0.0 mm
06:35 AM 60.8°F16.0°C 57.5°F14.2°C 89% Calm Calm -- 30.26 in1024.7 mb - 0.00 in0.0 mm 0.00 in0.0 mm
06:40 AM 61.1°F16.2°C 58.1°F14.5°C 90% 1.2 mph WNW1.9 kmh WNW 3.5 mph5.6 kmh 30.26 in1024.7 mb - 0.00 in0.0 mm 0.00 in0.0 mm
06:45 AM 61.4°F16.3°C 58.2°F14.6°C 89% 1.2 mph WNW1.9 kmh WNW 3.5 mph5.6 kmh 30.26 in1024.7 mb - 0.00 in0.0 mm 0.00 in0.0 mm
06:50 AM 61.9°F16.6°C 58.6°F14.8°C 89% 2.3 mph NW3.7 kmh NW 3.5 mph5.6 kmh 30.26 in1024.7 mb - 0.00 in0.0 mm 0.00 in0.0 mm
06:55 AM 62.3°F16.8°C 59.0°F15.0°C 89% 2.3 mph NW3.7 kmh NW 3.5 mph5.6 kmh 30.26 in1024.7 mb - 0.00 in0.0 mm 0.00 in0.0 mm
07:00 AM 62.8°F17.1°C 59.1°F15.1°C 88% Calm Calm 3.5 mph5.6 kmh 30.26 in1024.7 mb - 0.00 in0.0 mm 0.00 in0.0 mm
07:10 AM 63.4°F17.4°C 59.5°F15.3°C 87% Calm Calm 1.2 mph1.9 kmh 30.26 in1024.7 mb - 0.00 in0.0 mm 0.00 in0.0 mm
07:15 AM 63.9°F17.7°C 59.6°F15.3°C 86% Calm Calm -- 30.27 in1025.1 mb - 0.00 in0.0 mm 0.00 in0.0 mm
07:20 AM 64.4°F18.0°C 59.5°F15.3°C 84% Calm Calm 2.3 mph3.7 kmh 30.27 in1025.1 mb - 0.00 in0.0 mm 0.00 in0.0 mm
07:25 AM 65.0°F18.3°C 59.8°F15.4°C 83% 2.3 mph NE3.7 kmh NE 3.5 mph5.6 kmh 30.27 in1025.1 mb - 0.00 in0.0 mm 0.00 in0.0 mm
07:30 AM 65.7°F18.7°C 60.0°F15.6°C 82% 1.2 mph N1.9 kmh N 2.3 mph3.7 kmh 30.27 in1025.1 mb - 0.00 in0.0 mm 0.00 in0.0 mm
07:35 AM 66.2°F19.0°C 60.2°F15.7°C 81% 3.5 mph NNE5.6 kmh NNE 3.5 mph5.6 kmh 30.26 in1024.7 mb - 0.00 in0.0 mm 0.00 in0.0 mm
07:40 AM 66.7°F19.3°C 60.3°F15.7°C 80% 2.3 mph NNE3.7 kmh NNE 2.3 mph3.7 kmh 30.27 in1025.1 mb - 0.00 in0.0 mm 0.00 in0.0 mm
07:45 AM 67.1°F19.5°C 60.3°F15.7°C 79% 1.2 mph NE1.9 kmh NE 2.3 mph3.7 kmh 30.26 in1024.7 mb - 0.00 in0.0 mm 0.00 in0.0 mm
07:50 AM 67.6°F19.8°C 60.8°F16.0°C 79% 1.2 mph NE1.9 kmh NE 3.5 mph5.6 kmh 30.26 in1024.7 mb - 0.00 in0.0 mm 0.00 in0.0 mm
07:55 AM 68.1°F20.1°C 60.6°F15.9°C 77% 3.5 mph NE5.6 kmh NE 4.6 mph7.4 kmh 30.26 in1024.7 mb - 0.00 in0.0 mm 0.00 in0.0 mm
08:00 AM 68.4°F20.2°C 60.9°F16.1°C 77% 2.3 mph N3.7 kmh N 4.6 mph7.4 kmh 30.26 in1024.7 mb - 0.00 in0.0 mm 0.00 in0.0 mm
08:10 AM 69.2°F20.7°C 60.6°F15.9°C 74% 5.8 mph NNE9.3 kmh NNE 10.4 mph16.7 kmh 30.26 in1024.7 mb - 0.00 in0.0 mm 0.00 in0.0 mm
08:15 AM 69.7°F20.9°C 61.0°F16.1°C 74% 3.5 mph NE5.6 kmh NE 4.6 mph7.4 kmh 30.26 in1024.7 mb - 0.00 in0.0 mm 0.00 in0.0 mm
08:20 AM 70.2°F21.2°C 61.1°F16.2°C 73% 3.5 mph N5.6 kmh N 10.4 mph16.7 kmh 30.26 in1024.7 mb - 0.00 in0.0 mm 0.00 in0.0 mm
08:25 AM 70.4°F21.3°C 60.9°F16.1°C 72% 5.8 mph NE9.3 kmh NE 9.2 mph14.8 kmh 30.26 in1024.7 mb - 0.00 in0.0 mm 0.00 in0.0 mm
08:30 AM 70.7°F21.5°C 61.6°F16.4°C 73% 4.6 mph NE7.4 kmh NE 9.2 mph14.8 kmh 30.26 in1024.7 mb - 0.00 in0.0 mm 0.00 in0.0 mm
08:35 AM 71.1°F21.7°C 61.2°F16.2°C 71% 4.6 mph NE7.4 kmh NE 11.5 mph18.5 kmh 30.26 in1024.7 mb - 0.00 in0.0 mm 0.00 in0.0 mm
08:40 AM 71.5°F21.9°C 60.8°F16.0°C 69% 6.9 mph NE11.1 kmh NE 11.5 mph18.5 kmh 30.26 in1024.7 mb - 0.00 in0.0 mm 0.00 in0.0 mm
08:45 AM 71.8°F22.1°C 60.7°F15.9°C 68% 5.8 mph NE9.3 kmh NE 6.9 mph11.1 kmh 30.26 in1024.7 mb - 0.00 in0.0 mm 0.00 in0.0 mm
08:50 AM 72.1°F22.3°C 61.0°F16.1°C 68% 5.8 mph NE9.3 kmh NE 9.2 mph14.8 kmh 30.26 in1024.7 mb - 0.00 in0.0 mm 0.00 in0.0 mm
08:55 AM 72.5°F22.5°C 61.7°F16.5°C 69% 4.6 mph NE7.4 kmh NE 8.1 mph13.0 kmh 30.26 in1024.7 mb - 0.00 in0.0 mm 0.00 in0.0 mm
09:00 AM 72.7°F22.6°C 61.1°F16.2°C 67% 5.8 mph NNE9.3 kmh NNE 10.4 mph16.7 kmh 30.26 in1024.7 mb - 0.00 in0.0 mm 0.00 in0.0 mm
09:10 AM 72.9°F22.7°C 61.7°F16.5°C 68% 6.9 mph NE11.1 kmh NE 6.9 mph11.1 kmh 30.26 in1024.7 mb - 0.00 in0.0 mm 0.00 in0.0 mm
09:15 AM 72.8°F22.7°C 61.6°F16.4°C 68% 3.5 mph NE5.6 kmh NE 9.2 mph14.8 kmh 30.25 in1024.4 mb - 0.00 in0.0 mm 0.00 in0.0 mm
09:20 AM 73.2°F22.9°C 61.1°F16.2°C 66% 5.8 mph ENE9.3 kmh ENE 9.2 mph14.8 kmh 30.26 in1024.7 mb - 0.00 in0.0 mm 0.00 in0.0 mm
09:25 AM 73.4°F23.0°C 61.8°F16.6°C 67% 4.6 mph NNE7.4 kmh NNE 8.1 mph13.0 kmh 30.26 in1024.7 mb - 0.00 in0.0 mm 0.00 in0.0 mm
09:30 AM 73.8°F23.2°C 62.2°F16.8°C 67% 5.8 mph N9.3 kmh N 9.2 mph14.8 kmh 30.26 in1024.7 mb - 0.00 in0.0 mm 0.00 in0.0 mm
09:35 AM 74.3°F23.5°C 62.2°F16.8°C 66% 3.5 mph NE5.6 kmh NE 4.6 mph7.4 kmh 30.25 in1024.4 mb - 0.00 in0.0 mm 0.00 in0.0 mm
09:40 AM 74.7°F23.7°C 62.1°F16.7°C 65% 3.5 mph NNE5.6 kmh NNE 9.2 mph14.8 kmh 30.25 in1024.4 mb - 0.00 in0.0 mm 0.00 in0.0 mm
09:45 AM 74.8°F23.8°C 61.8°F16.6°C 64% 1.2 mph NNE1.9 kmh NNE 4.6 mph7.4 kmh 30.25 in1024.4 mb - 0.00 in0.0 mm 0.00 in0.0 mm
09:50 AM 74.8°F23.8°C 61.8°F16.6°C 64% 5.8 mph NNE9.3 kmh NNE 9.2 mph14.8 kmh 30.25 in1024.4 mb - 0.00 in0.0 mm 0.00 in0.0 mm
09:55 AM 74.8°F23.8°C 61.4°F16.3°C 63% 4.6 mph NNW7.4 kmh NNW 8.1 mph13.0 kmh 30.25 in1024.4 mb - 0.00 in0.0 mm 0.00 in0.0 mm
10:00 AM 74.7°F23.7°C 62.2°F16.8°C 65% 5.8 mph NNE9.3 kmh NNE 9.2 mph14.8 kmh 30.25 in1024.4 mb - 0.00 in0.0 mm 0.00 in0.0 mm
10:10 AM 75.6°F24.2°C 61.6°F16.4°C 62% 5.8 mph NNE9.3 kmh NNE 10.4 mph16.7 kmh 30.25 in1024.4 mb - 0.00 in0.0 mm 0.00 in0.0 mm
10:15 AM 75.9°F24.4°C 61.5°F16.4°C 61% 2.3 mph NNE3.7 kmh NNE 4.6 mph7.4 kmh 30.25 in1024.4 mb - 0.00 in0.0 mm 0.00 in0.0 mm
10:20 AM 76.4°F24.7°C 61.0°F16.1°C 59% 1.2 mph NE1.9 kmh NE 3.5 mph5.6 kmh 30.25 in1024.4 mb - 0.00 in0.0 mm 0.00 in0.0 mm
10:25 AM 76.5°F24.7°C 61.6°F16.4°C 60% 2.3 mph E3.7 kmh E 8.1 mph13.0 kmh 30.25 in1024.4 mb - 0.00 in0.0 mm 0.00 in0.0 mm
10:30 AM 76.9°F24.9°C 60.5°F15.8°C 57% Calm Calm 2.3 mph3.7 kmh 30.25 in1024.4 mb - 0.00 in0.0 mm 0.00 in0.0 mm
10:35 AM 76.6°F24.8°C 61.2°F16.2°C 59% 6.9 mph NNE11.1 kmh NNE 10.4 mph16.7 kmh 30.25 in1024.4 mb - 0.00 in0.0 mm 0.00 in0.0 mm
10:40 AM 76.3°F24.6°C 60.9°F16.1°C 59% 2.3 mph NE3.7 kmh NE 9.2 mph14.8 kmh 30.24 in1024.0 mb - 0.00 in0.0 mm 0.00 in0.0 mm
10:45 AM 76.1°F24.5°C 60.8°F16.0°C 59% 5.8 mph N9.3 kmh N 6.9 mph11.1 kmh 30.24 in1024.0 mb - 0.00 in0.0 mm 0.00 in0.0 mm
10:50 AM 76.4°F24.7°C 61.0°F16.1°C 59% 4.6 mph ENE7.4 kmh ENE 8.1 mph13.0 kmh 30.24 in1024.0 mb - 0.00 in0.0 mm 0.00 in0.0 mm
10:55 AM 76.7°F24.8°C 61.3°F16.3°C 59% 4.6 mph NNE7.4 kmh NNE 6.9 mph11.1 kmh 30.24 in1024.0 mb - 0.00 in0.0 mm 0.00 in0.0 mm
11:00 AM 76.8°F24.9°C 61.8°F16.6°C 60% 4.6 mph NE7.4 kmh NE 8.1 mph13.0 kmh 30.24 in1024.0 mb - 0.00 in0.0 mm 0.00 in0.0 mm
11:10 AM 76.7°F24.8°C 61.3°F16.3°C 59% 3.5 mph NNW5.6 kmh NNW 5.8 mph9.3 kmh 30.24 in1024.0 mb - 0.00 in0.0 mm 0.00 in0.0 mm
11:15 AM 76.8°F24.9°C 62.3°F16.8°C 61% 2.3 mph N3.7 kmh N 9.2 mph14.8 kmh 30.24 in1024.0 mb - 0.00 in0.0 mm 0.00 in0.0 mm
11:20 AM 77.1°F25.1°C 61.6°F16.4°C 59% 4.6 mph NE7.4 kmh NE 3.5 mph5.6 kmh 30.24 in1024.0 mb - 0.00 in0.0 mm 0.00 in0.0 mm
11:25 AM 77.5°F25.3°C 62.0°F16.7°C 59% 3.5 mph NNE5.6 kmh NNE 5.8 mph9.3 kmh 30.23 in1023.7 mb - 0.00 in0.0 mm 0.00 in0.0 mm
11:30 AM 77.7°F25.4°C 62.7°F17.1°C 60% 5.8 mph NE9.3 kmh NE 9.2 mph14.8 kmh 30.23 in1023.7 mb - 0.00 in0.0 mm 0.00 in0.0 mm
11:35 AM 78.0°F25.6°C 61.5°F16.4°C 57% Calm Calm 2.3 mph3.7 kmh 30.23 in1023.7 mb - 0.00 in0.0 mm 0.00 in0.0 mm
11:40 AM 78.0°F25.6°C 62.5°F16.9°C 59% 1.2 mph NNW1.9 kmh NNW 8.1 mph13.0 kmh 30.23 in1023.7 mb - 0.00 in0.0 mm 0.00 in0.0 mm
11:45 AM 78.0°F25.6°C 62.0°F16.7°C 58% 2.3 mph NNE3.7 kmh NNE 5.8 mph9.3 kmh 30.23 in1023.7 mb - 0.00 in0.0 mm 0.00 in0.0 mm
11:50 AM 78.3°F25.7°C 61.8°F16.6°C 57% Calm Calm 1.2 mph1.9 kmh 30.23 in1023.7 mb - 0.00 in0.0 mm 0.00 in0.0 mm
11:55 AM 78.2°F25.7°C 62.2°F16.8°C 58% 1.2 mph N1.9 kmh N 1.2 mph1.9 kmh 30.23 in1023.7 mb - 0.00 in0.0 mm 0.00 in0.0 mm
12:00 PM 78.7°F25.9°C 61.7°F16.5°C 56% Calm Calm 2.3 mph3.7 kmh 30.23 in1023.7 mb - 0.00 in0.0 mm 0.00 in0.0 mm
12:10 PM 79.3°F26.3°C 62.2°F16.8°C 56% 1.2 mph N1.9 kmh N 2.3 mph3.7 kmh 30.23 in1023.7 mb - 0.00 in0.0 mm 0.00 in0.0 mm
12:15 PM 79.4°F26.3°C 62.4°F16.9°C 56% 1.2 mph N1.9 kmh N 2.3 mph3.7 kmh 30.23 in1023.7 mb - 0.00 in0.0 mm 0.00 in0.0 mm
12:20 PM 79.5°F26.4°C 63.0°F17.2°C 57% 1.2 mph NE1.9 kmh NE 2.3 mph3.7 kmh 30.22 in1023.4 mb - 0.00 in0.0 mm 0.00 in0.0 mm
12:25 PM 79.9°F26.6°C 62.8°F17.1°C 56% 3.5 mph NE5.6 kmh NE 3.5 mph5.6 kmh 30.22 in1023.4 mb - 0.00 in0.0 mm 0.00 in0.0 mm
12:30 PM 79.9°F26.6°C 62.3°F16.8°C 55% Calm Calm -- 30.22 in1023.4 mb - 0.00 in0.0 mm 0.00 in0.0 mm
12:35 PM 79.5°F26.4°C 61.9°F16.6°C 55% 1.2 mph NNW1.9 kmh NNW 3.5 mph5.6 kmh 30.22 in1023.4 mb - 0.00 in0.0 mm 0.00 in0.0 mm
12:40 PM 79.0°F26.1°C 61.5°F16.4°C 55% Calm Calm 2.3 mph3.7 kmh 30.22 in1023.4 mb - 0.00 in0.0 mm 0.00 in0.0 mm
12:45 PM 78.9°F26.1°C 62.9°F17.2°C 58% 1.2 mph NNW1.9 kmh NNW 3.5 mph5.6 kmh 30.22 in1023.4 mb - 0.00 in0.0 mm 0.00 in0.0 mm
12:50 PM 78.7°F25.9°C 62.2°F16.8°C 57% 1.2 mph N1.9 kmh N 3.5 mph5.6 kmh 30.21 in1023.0 mb - 0.00 in0.0 mm 0.00 in0.0 mm
12:55 PM 79.1°F26.2°C 62.0°F16.7°C 56% Calm Calm 2.3 mph3.7 kmh 30.21 in1023.0 mb - 0.00 in0.0 mm 0.00 in0.0 mm
01:00 PM 79.7°F26.5°C 62.6°F17.0°C 56% 1.2 mph NNE1.9 kmh NNE 4.6 mph7.4 kmh 30.21 in1023.0 mb - 0.00 in0.0 mm 0.00 in0.0 mm
01:10 PM 79.7°F26.5°C 61.1°F16.2°C 53% Calm Calm -- 30.21 in1023.0 mb - 0.00 in0.0 mm 0.00 in0.0 mm
01:15 PM 79.5°F26.4°C 62.9°F17.2°C 57% 2.3 mph NE3.7 kmh NE 4.6 mph7.4 kmh 30.21 in1023.0 mb - 0.00 in0.0 mm 0.00 in0.0 mm
01:20 PM 79.6°F26.4°C 62.6°F17.0°C 56% 3.5 mph NE5.6 kmh NE 4.6 mph7.4 kmh 30.21 in1023.0 mb - 0.00 in0.0 mm 0.00 in0.0 mm
01:25 PM 79.8°F26.6°C 62.2°F16.8°C 55% 2.3 mph E3.7 kmh E 3.5 mph5.6 kmh 30.20 in1022.7 mb - 0.00 in0.0 mm 0.00 in0.0 mm
01:30 PM 80.4°F26.9°C 62.7°F17.1°C 55% 1.2 mph E1.9 kmh E 3.5 mph5.6 kmh 30.20 in1022.7 mb - 0.00 in0.0 mm 0.00 in0.0 mm
01:35 PM 80.4°F26.9°C 61.7°F16.5°C 53% 2.3 mph E3.7 kmh E 3.5 mph5.6 kmh 30.20 in1022.7 mb - 0.00 in0.0 mm 0.00 in0.0 mm
01:40 PM 80.5°F26.9°C 62.3°F16.8°C 54% 3.5 mph N5.6 kmh N 9.2 mph14.8 kmh 30.20 in1022.7 mb - 0.00 in0.0 mm 0.00 in0.0 mm
01:45 PM 80.4°F26.9°C 61.7°F16.5°C 53% 4.6 mph NE7.4 kmh NE 5.8 mph9.3 kmh 30.20 in1022.7 mb - 0.00 in0.0 mm 0.00 in0.0 mm
01:50 PM 80.7°F27.1°C 61.5°F16.4°C 52% 3.5 mph NNE5.6 kmh NNE 3.5 mph5.6 kmh 30.20 in1022.7 mb - 0.00 in0.0 mm 0.00 in0.0 mm
01:55 PM 80.8°F27.1°C 61.0°F16.1°C 51% 3.5 mph NE5.6 kmh NE 10.4 mph16.7 kmh 30.20 in1022.7 mb - 0.00 in0.0 mm 0.00 in0.0 mm
02:00 PM 80.3°F26.8°C 61.6°F16.4°C 53% 3.5 mph E5.6 kmh E 5.8 mph9.3 kmh 30.20 in1022.7 mb - 0.00 in0.0 mm 0.00 in0.0 mm
02:10 PM 79.2°F26.2°C 59.5°F15.3°C 51% 2.3 mph NE3.7 kmh NE 3.5 mph5.6 kmh 30.19 in1022.4 mb - 0.00 in0.0 mm 0.00 in0.0 mm
02:15 PM 79.6°F26.4°C 60.4°F15.8°C 52% 5.8 mph NE9.3 kmh NE 9.2 mph14.8 kmh 30.19 in1022.4 mb - 0.00 in0.0 mm 0.00 in0.0 mm
02:20 PM 80.4°F26.9°C 61.7°F16.5°C 53% 6.9 mph NE11.1 kmh NE 10.4 mph16.7 kmh 30.20 in1022.7 mb - 0.00 in0.0 mm 0.00 in0.0 mm
02:25 PM 81.0°F27.2°C 60.6°F15.9°C 50% 8.1 mph NE13.0 kmh NE 10.4 mph16.7 kmh 30.20 in1022.7 mb - 0.00 in0.0 mm 0.00 in0.0 mm
02:30 PM 81.2°F27.3°C 60.3°F15.7°C 49% 4.6 mph ENE7.4 kmh ENE 10.4 mph16.7 kmh 30.20 in1022.7 mb - 0.00 in0.0 mm 0.00 in0.0 mm
02:35 PM 80.8°F27.1°C 61.0°F16.1°C 51% 6.9 mph NE11.1 kmh NE 11.5 mph18.5 kmh 30.20 in1022.7 mb - 0.00 in0.0 mm 0.00 in0.0 mm
02:40 PM 80.1°F26.7°C 60.9°F16.1°C 52% 4.6 mph NE7.4 kmh NE 8.1 mph13.0 kmh 30.20 in1022.7 mb - 0.00 in0.0 mm 0.00 in0.0 mm
02:45 PM 79.5°F26.4°C 60.3°F15.7°C 52% 3.5 mph NE5.6 kmh NE 6.9 mph11.1 kmh 30.19 in1022.4 mb - 0.00 in0.0 mm 0.00 in0.0 mm
02:50 PM 79.0°F26.1°C 60.9°F16.1°C 54% 2.3 mph NE3.7 kmh NE 3.5 mph5.6 kmh 30.20 in1022.7 mb - 0.00 in0.0 mm 0.00 in0.0 mm
02:55 PM 79.3°F26.3°C 60.7°F15.9°C 53% 3.5 mph NE5.6 kmh NE 9.2 mph14.8 kmh 30.19 in1022.4 mb - 0.00 in0.0 mm 0.00 in0.0 mm
03:00 PM 80.1°F26.7°C 59.2°F15.1°C 49% 5.8 mph ENE9.3 kmh ENE 9.2 mph14.8 kmh 30.19 in1022.4 mb - 0.00 in0.0 mm 0.00 in0.0 mm
03:10 PM 81.4°F27.4°C 61.0°F16.1°C 50% 4.6 mph NE7.4 kmh NE 9.2 mph14.8 kmh 30.19 in1022.4 mb - 0.00 in0.0 mm 0.00 in0.0 mm
03:15 PM 81.4°F27.4°C 60.4°F15.8°C 49% 8.1 mph NE13.0 kmh NE 11.5 mph18.5 kmh 30.19 in1022.4 mb - 0.00 in0.0 mm 0.00 in0.0 mm
03:20 PM 80.7°F27.1°C 60.3°F15.7°C 50% 6.9 mph ENE11.1 kmh ENE 8.1 mph13.0 kmh 30.19 in1022.4 mb - 0.00 in0.0 mm 0.00 in0.0 mm
03:25 PM 79.7°F26.5°C 60.0°F15.6°C 51% 3.5 mph E5.6 kmh E 8.1 mph13.0 kmh 30.19 in1022.4 mb - 0.00 in0.0 mm 0.00 in0.0 mm
03:30 PM 79.0°F26.1°C 60.4°F15.8°C 53% 5.8 mph NE9.3 kmh NE 11.5 mph18.5 kmh 30.19 in1022.4 mb - 0.00 in0.0 mm 0.00 in0.0 mm
03:35 PM 78.5°F25.8°C 60.9°F16.1°C 55% 3.5 mph NE5.6 kmh NE 5.8 mph9.3 kmh 30.19 in1022.4 mb - 0.00 in0.0 mm 0.00 in0.0 mm
03:40 PM 78.8°F26.0°C 60.7°F15.9°C 54% 6.9 mph NE11.1 kmh NE 11.5 mph18.5 kmh 30.19 in1022.4 mb - 0.00 in0.0 mm 0.00 in0.0 mm
03:45 PM 78.8°F26.0°C 60.7°F15.9°C 54% 3.5 mph NE5.6 kmh NE 6.9 mph11.1 kmh 30.19 in1022.4 mb - 0.00 in0.0 mm 0.00 in0.0 mm
03:50 PM 78.5°F25.8°C 61.0°F16.1°C 55% 2.3 mph NNE3.7 kmh NNE 8.1 mph13.0 kmh 30.19 in1022.4 mb - 0.00 in0.0 mm 0.00 in0.0 mm
03:55 PM 78.6°F25.9°C 60.6°F15.9°C 54% 3.5 mph NE5.6 kmh NE 5.8 mph9.3 kmh 30.19 in1022.4 mb - 0.00 in0.0 mm 0.00 in0.0 mm
04:00 PM 79.2°F26.2°C 60.6°F15.9°C 53% 4.6 mph ENE7.4 kmh ENE 11.5 mph18.5 kmh 30.19 in1022.4 mb - 0.00 in0.0 mm 0.00 in0.0 mm
04:10 PM 79.5°F26.4°C 60.3°F15.7°C 52% 8.1 mph NE13.0 kmh NE 12.7 mph20.4 kmh 30.19 in1022.4 mb - 0.00 in0.0 mm 0.00 in0.0 mm
04:15 PM 79.5°F26.4°C 60.3°F15.7°C 52% 6.9 mph NE11.1 kmh NE 10.4 mph16.7 kmh 30.19 in1022.4 mb - 0.00 in0.0 mm 0.00 in0.0 mm
04:20 PM 79.5°F26.4°C 59.8°F15.4°C 51% 3.5 mph NE5.6 kmh NE 5.8 mph9.3 kmh 30.19 in1022.4 mb - 0.00 in0.0 mm 0.00 in0.0 mm
04:25 PM 79.8°F26.6°C 60.0°F15.6°C 51% 4.6 mph NE7.4 kmh NE 5.8 mph9.3 kmh 30.19 in1022.4 mb - 0.00 in0.0 mm 0.00 in0.0 mm
04:30 PM 80.0°F26.7°C 60.3°F15.7°C 51% 4.6 mph NE7.4 kmh NE 11.5 mph18.5 kmh 30.19 in1022.4 mb - 0.00 in0.0 mm 0.00 in0.0 mm
04:35 PM 80.2°F26.8°C 59.9°F15.5°C 50% 3.5 mph E5.6 kmh E 5.8 mph9.3 kmh 30.18 in1022.0 mb - 0.00 in0.0 mm 0.00 in0.0 mm
04:40 PM 80.2°F26.8°C 60.4°F15.8°C 51% 4.6 mph E7.4 kmh E 8.1 mph13.0 kmh 30.18 in1022.0 mb - 0.00 in0.0 mm 0.00 in0.0 mm
04:45 PM 80.1°F26.7°C 60.3°F15.7°C 51% 5.8 mph ENE9.3 kmh ENE 9.2 mph14.8 kmh 30.19 in1022.4 mb - 0.00 in0.0 mm 0.00 in0.0 mm
04:50 PM 80.0°F26.7°C 59.7°F15.4°C 50% 2.3 mph ENE3.7 kmh ENE 3.5 mph5.6 kmh 30.19 in1022.4 mb - 0.00 in0.0 mm 0.00 in0.0 mm
04:55 PM 79.9°F26.6°C 60.2°F15.7°C 51% 4.6 mph ENE7.4 kmh ENE 8.1 mph13.0 kmh 30.19 in1022.4 mb - 0.00 in0.0 mm 0.00 in0.0 mm
05:00 PM 79.6°F26.4°C 60.4°F15.8°C 52% 3.5 mph ENE5.6 kmh ENE 3.5 mph5.6 kmh 30.18 in1022.0 mb - 0.00 in0.0 mm 0.00 in0.0 mm
05:10 PM 79.5°F26.4°C 59.8°F15.4°C 51% 2.3 mph NE3.7 kmh NE 4.6 mph7.4 kmh 30.18 in1022.0 mb - 0.00 in0.0 mm 0.00 in0.0 mm
05:15 PM 79.5°F26.4°C 60.3°F15.7°C 52% 4.6 mph NE7.4 kmh NE 4.6 mph7.4 kmh 30.18 in1022.0 mb - 0.00 in0.0 mm 0.00 in0.0 mm
05:20 PM 79.4°F26.3°C 60.2°F15.7°C 52% 3.5 mph ENE5.6 kmh ENE 5.8 mph9.3 kmh 30.18 in1022.0 mb - 0.00 in0.0 mm 0.00 in0.0 mm
05:25 PM 79.1°F26.2°C 59.9°F15.5°C 52% 3.5 mph E5.6 kmh E 6.9 mph11.1 kmh 30.18 in1022.0 mb - 0.00 in0.0 mm 0.00 in0.0 mm
05:30 PM 78.6°F25.9°C 59.5°F15.3°C 52% 3.5 mph ENE5.6 kmh ENE 9.2 mph14.8 kmh 30.18 in1022.0 mb - 0.00 in0.0 mm 0.00 in0.0 mm
05:35 PM 78.4°F25.8°C 60.4°F15.8°C 54% 2.3 mph NE3.7 kmh NE 9.2 mph14.8 kmh 30.18 in1022.0 mb - 0.00 in0.0 mm 0.00 in0.0 mm
05:40 PM 78.1°F25.6°C 60.1°F15.6°C 54% 2.3 mph ENE3.7 kmh ENE 3.5 mph5.6 kmh 30.18 in1022.0 mb - 0.00 in0.0 mm 0.00 in0.0 mm
05:45 PM 77.7°F25.4°C 60.3°F15.7°C 55% 1.2 mph N1.9 kmh N 1.2 mph1.9 kmh 30.18 in1022.0 mb - 0.00 in0.0 mm 0.00 in0.0 mm
05:50 PM 77.4°F25.2°C 60.5°F15.8°C 56% Calm Calm 2.3 mph3.7 kmh 30.18 in1022.0 mb - 0.00 in0.0 mm 0.00 in0.0 mm
05:55 PM 77.2°F25.1°C 60.8°F16.0°C 57% Calm Calm -- 30.18 in1022.0 mb - 0.00 in0.0 mm 0.00 in0.0 mm
06:00 PM 76.9°F24.9°C 61.0°F16.1°C 58% Calm Calm 3.5 mph5.6 kmh 30.18 in1022.0 mb - 0.00 in0.0 mm 0.00 in0.0 mm
06:10 PM 76.2°F24.6°C 60.9°F16.1°C 59% 2.3 mph NE3.7 kmh NE 4.6 mph7.4 kmh 30.18 in1022.0 mb - 0.00 in0.0 mm 0.00 in0.0 mm
06:15 PM 75.9°F24.4°C 60.5°F15.8°C 59% 1.2 mph ENE1.9 kmh ENE 3.5 mph5.6 kmh 30.18 in1022.0 mb - 0.00 in0.0 mm 0.00 in0.0 mm
06:20 PM 75.6°F24.2°C 60.3°F15.7°C 59% 1.2 mph ENE1.9 kmh ENE 2.3 mph3.7 kmh 30.18 in1022.0 mb - 0.00 in0.0 mm 0.00 in0.0 mm
06:25 PM 75.3°F24.1°C 60.5°F15.8°C 60% 1.2 mph ENE1.9 kmh ENE 2.3 mph3.7 kmh 30.18 in1022.0 mb - 0.00 in0.0 mm 0.00 in0.0 mm
06:30 PM 75.0°F23.9°C 60.6°F15.9°C 61% Calm Calm 1.2 mph1.9 kmh 30.18 in1022.0 mb - 0.00 in0.0 mm 0.00 in0.0 mm
06:35 PM 74.7°F23.7°C 60.8°F16.0°C 62% Calm Calm -- 30.18 in1022.0 mb - 0.00 in0.0 mm 0.00 in0.0 mm
06:40 PM 74.4°F23.6°C 61.0°F16.1°C 63% Calm Calm 1.2 mph1.9 kmh 30.18 in1022.0 mb - 0.00 in0.0 mm 0.00 in0.0 mm
06:45 PM 74.1°F23.4°C 60.7°F15.9°C 63% Calm Calm 2.3 mph3.7 kmh 30.18 in1022.0 mb - 0.00 in0.0 mm 0.00 in0.0 mm
06:50 PM 73.7°F23.2°C 60.4°F15.8°C 63% 1.2 mph ENE1.9 kmh ENE 2.3 mph3.7 kmh 30.18 in1022.0 mb - 0.00 in0.0 mm 0.00 in0.0 mm
06:55 PM 73.4°F23.0°C 60.5°F15.8°C 64% Calm Calm -- 30.18 in1022.0 mb - 0.00 in0.0 mm 0.00 in0.0 mm
07:00 PM 73.1°F22.8°C 60.7°F15.9°C 65% Calm Calm -- 30.18 in1022.0 mb - 0.00 in0.0 mm 0.00 in0.0 mm
07:10 PM 72.6°F22.6°C 60.6°F15.9°C 66% Calm Calm -- 30.18 in1022.0 mb - 0.00 in0.0 mm 0.00 in0.0 mm
07:15 PM 72.3°F22.4°C 60.7°F15.9°C 67% Calm Calm -- 30.19 in1022.4 mb - 0.00 in0.0 mm 0.00 in0.0 mm
07:20 PM 72.0°F22.2°C 60.8°F16.0°C 68% Calm Calm -- 30.19 in1022.4 mb - 0.00 in0.0 mm 0.00 in0.0 mm
07:25 PM 71.6°F22.0°C 60.9°F16.1°C 69% Calm Calm -- 30.19 in1022.4 mb - 0.00 in0.0 mm 0.00 in0.0 mm
07:30 PM 71.3°F21.8°C 61.0°F16.1°C 70% Calm Calm -- 30.19 in1022.4 mb - 0.00 in0.0 mm 0.00 in0.0 mm
07:35 PM 70.9°F21.6°C 61.5°F16.4°C 72% Calm Calm -- 30.19 in1022.4 mb - 0.00 in0.0 mm 0.00 in0.0 mm
07:40 PM 70.7°F21.5°C 61.6°F16.4°C 73% Calm Calm -- 30.19 in1022.4 mb - 0.00 in0.0 mm 0.00 in0.0 mm
07:45 PM 70.4°F21.3°C 61.7°F16.5°C 74% Calm Calm -- 30.19 in1022.4 mb - 0.00 in0.0 mm 0.00 in0.0 mm
07:50 PM 70.2°F21.2°C 61.9°F16.6°C 75% Calm Calm -- 30.20 in1022.7 mb - 0.00 in0.0 mm 0.00 in0.0 mm
07:55 PM 69.9°F21.1°C 62.0°F16.7°C 76% Calm Calm -- 30.20 in1022.7 mb - 0.00 in0.0 mm 0.00 in0.0 mm
08:00 PM 69.7°F20.9°C 61.8°F16.6°C 76% Calm Calm -- 30.20 in1022.7 mb - 0.00 in0.0 mm 0.00 in0.0 mm
08:10 PM 69.1°F20.6°C 61.6°F16.4°C 77% Calm Calm -- 30.20 in1022.7 mb - 0.00 in0.0 mm 0.00 in0.0 mm
08:15 PM 68.9°F20.5°C 61.8°F16.6°C 78% Calm Calm -- 30.20 in1022.7 mb - 0.00 in0.0 mm 0.00 in0.0 mm
08:20 PM 68.6°F20.3°C 61.8°F16.6°C 79% Calm Calm -- 30.20 in1022.7 mb - 0.00 in0.0 mm 0.00 in0.0 mm
08:25 PM 68.3°F20.2°C 61.5°F16.4°C 79% Calm Calm -- 30.20 in1022.7 mb - 0.00 in0.0 mm 0.00 in0.0 mm
08:30 PM 68.0°F20.0°C 61.6°F16.4°C 80% Calm Calm -- 30.20 in1022.7 mb - 0.00 in0.0 mm 0.00 in0.0 mm
08:35 PM 67.7°F19.8°C 61.6°F16.4°C 81% Calm Calm -- 30.20 in1022.7 mb - 0.00 in0.0 mm 0.00 in0.0 mm
08:40 PM 67.5°F19.7°C 61.4°F16.3°C 81% Calm Calm -- 30.20 in1022.7 mb - 0.00 in0.0 mm 0.00 in0.0 mm
08:45 PM 67.3°F19.6°C 61.2°F16.2°C 81% Calm Calm -- 30.20 in1022.7 mb - 0.00 in0.0 mm 0.00 in0.0 mm
08:50 PM 67.0°F19.4°C 61.0°F16.1°C 81% Calm Calm -- 30.20 in1022.7 mb - 0.00 in0.0 mm 0.00 in0.0 mm
08:55 PM 66.8°F19.3°C 61.1°F16.2°C 82% Calm Calm -- 30.20 in1022.7 mb - 0.00 in0.0 mm 0.00 in0.0 mm
09:00 PM 66.6°F19.2°C 60.9°F16.1°C 82% Calm Calm -- 30.20 in1022.7 mb - 0.00 in0.0 mm 0.00 in0.0 mm
09:10 PM 66.2°F19.0°C 60.9°F16.1°C 83% Calm Calm -- 30.20 in1022.7 mb - 0.00 in0.0 mm 0.00 in0.0 mm
09:15 PM 66.1°F18.9°C 60.8°F16.0°C 83% Calm Calm -- 30.20 in1022.7 mb - 0.00 in0.0 mm 0.00 in0.0 mm
09:20 PM 65.9°F18.8°C 60.6°F15.9°C 83% 1.2 mph WSW1.9 kmh WSW 2.3 mph3.7 kmh 30.20 in1022.7 mb - 0.00 in0.0 mm 0.00 in0.0 mm
09:25 PM 65.8°F18.8°C 60.5°F15.8°C 83% Calm Calm -- 30.20 in1022.7 mb - 0.00 in0.0 mm 0.00 in0.0 mm
09:30 PM 65.6°F18.7°C 60.3°F15.7°C 83% Calm Calm -- 30.20 in1022.7 mb - 0.00 in0.0 mm 0.00 in0.0 mm
09:35 PM 65.6°F18.7°C 60.6°F15.9°C 84% Calm Calm -- 30.20 in1022.7 mb - 0.00 in0.0 mm 0.00 in0.0 mm
09:40 PM 65.4°F18.6°C 60.5°F15.8°C 84% Calm Calm -- 30.20 in1022.7 mb - 0.00 in0.0 mm 0.00 in0.0 mm
09:45 PM 65.3°F18.5°C 60.3°F15.7°C 84% Calm Calm -- 30.20 in1022.7 mb - 0.00 in0.0 mm 0.00 in0.0 mm
09:50 PM 65.2°F18.4°C 60.2°F15.7°C 84% Calm Calm -- 30.20 in1022.7 mb - 0.00 in0.0 mm 0.00 in0.0 mm
09:55 PM 65.1°F18.4°C 60.1°F15.6°C 84% Calm Calm -- 30.20 in1022.7 mb - 0.00 in0.0 mm 0.00 in0.0 mm
10:00 PM 64.9°F18.3°C 60.3°F15.7°C 85% Calm Calm -- 30.20 in1022.7 mb - 0.00 in0.0 mm 0.00 in0.0 mm
10:10 PM 64.5°F18.1°C 60.2°F15.7°C 86% Calm Calm 3.5 mph5.6 kmh 30.20 in1022.7 mb - 0.00 in0.0 mm 0.00 in0.0 mm
10:15 PM 64.3°F17.9°C 60.0°F15.6°C 86% 2.3 mph SW3.7 kmh SW 3.5 mph5.6 kmh 30.20 in1022.7 mb - 0.00 in0.0 mm 0.00 in0.0 mm
10:20 PM 64.2°F17.9°C 60.2°F15.7°C 87% 1.2 mph WSW1.9 kmh WSW 3.5 mph5.6 kmh 30.21 in1023.0 mb - 0.00 in0.0 mm 0.00 in0.0 mm
10:25 PM 64.0°F17.8°C 60.0°F15.6°C 87% Calm Calm -- 30.21 in1023.0 mb - 0.00 in0.0 mm 0.00 in0.0 mm
10:30 PM 63.8°F17.7°C 59.9°F15.5°C 87% Calm Calm 1.2 mph1.9 kmh 30.21 in1023.0 mb - 0.00 in0.0 mm 0.00 in0.0 mm
10:35 PM 63.7°F17.6°C 60.1°F15.6°C 88% 1.2 mph W1.9 kmh W 2.3 mph3.7 kmh 30.20 in1022.7 mb - 0.00 in0.0 mm 0.00 in0.0 mm
10:40 PM 63.7°F17.6°C 60.1°F15.6°C 88% Calm Calm 2.3 mph3.7 kmh 30.20 in1022.7 mb - 0.00 in0.0 mm 0.00 in0.0 mm
10:45 PM 63.7°F17.6°C 60.1°F15.6°C 88% Calm Calm -- 30.20 in1022.7 mb - 0.00 in0.0 mm 0.00 in0.0 mm
10:50 PM 63.7°F17.6°C 60.0°F15.6°C 88% 1.2 mph WNW1.9 kmh WNW 2.3 mph3.7 kmh 30.20 in1022.7 mb - 0.00 in0.0 mm 0.00 in0.0 mm
10:55 PM 63.6°F17.6°C 60.0°F15.6°C 88% Calm Calm 1.2 mph1.9 kmh 30.20 in1022.7 mb - 0.00 in0.0 mm 0.00 in0.0 mm
11:00 PM 63.6°F17.6°C 60.0°F15.6°C 88% 1.2 mph WNW1.9 kmh WNW 2.3 mph3.7 kmh 30.20 in1022.7 mb - 0.00 in0.0 mm 0.00 in0.0 mm
11:10 PM 63.6°F17.6°C 60.0°F15.6°C 88% Calm Calm -- 30.20 in1022.7 mb - 0.00 in0.0 mm 0.00 in0.0 mm
11:15 PM 63.6°F17.6°C 60.0°F15.6°C 88% Calm Calm -- 30.20 in1022.7 mb - 0.00 in0.0 mm 0.00 in0.0 mm
11:20 PM 63.5°F17.5°C 59.9°F15.5°C 88% Calm Calm -- 30.20 in1022.7 mb - 0.00 in0.0 mm 0.00 in0.0 mm
11:25 PM 63.5°F17.5°C 59.9°F15.5°C 88% Calm Calm -- 30.20 in1022.7 mb - 0.00 in0.0 mm 0.00 in0.0 mm
11:30 PM 63.3°F17.4°C 59.7°F15.4°C 88% Calm Calm -- 30.20 in1022.7 mb - 0.00 in0.0 mm 0.00 in0.0 mm
11:35 PM 63.2°F17.3°C 59.5°F15.3°C 88% Calm Calm -- 30.20 in1022.7 mb - 0.00 in0.0 mm 0.00 in0.0 mm
11:40 PM 63.0°F17.2°C 59.7°F15.4°C 89% Calm Calm -- 30.20 in1022.7 mb - 0.00 in0.0 mm 0.00 in0.0 mm
11:45 PM 62.8°F17.1°C 59.5°F15.3°C 89% Calm Calm -- 30.20 in1022.7 mb - 0.00 in0.0 mm 0.00 in0.0 mm
11:50 PM 62.5°F16.9°C 59.2°F15.1°C 89% Calm Calm -- 30.20 in1022.7 mb - 0.00 in0.0 mm 0.00 in0.0 mm
11:55 PM 62.4°F16.9°C 59.1°F15.1°C 89% Calm Calm -- 30.20 in1022.7 mb - 0.00 in0.0 mm 0.00 in0.0 mm